Time;durP1;ratioP1;P1;durP2;ratioP2;P2;SDS_P1;SDS_P2;PMS_P1;PMS_P2;Temp;Humidity;BMP_temperature;BMP_pressure;BME280_temperature;BME280_humidity;BME280_pressure;Samples;Min_cycle;Max_cycle;Signal;HPM_P1;HPM_P2
2022/07/31 00:00:55;;;;;;;;;;;;;;;30.68;42.33;100410.13;105370;1299;61272;-82
2022/07/31 00:03:20;;;;;;;;;;;;;;;30.68;42.30;100401.35;105262;1298;61514;-82
2022/07/31 00:05:46;;;;;;;;;;;;;;;30.68;42.24;100389.16;105277;1300;61354;-83
2022/07/31 00:08:11;;;;;;;;;;;;;;;30.68;42.31;100388.88;105201;1299;61699;-82
2022/07/31 00:10:37;;;;;;;;;;;;;;;30.68;42.19;100393.60;105024;1300;61284;-82
2022/07/31 00:13:02;;;;;;;;;;;;;;;30.68;42.46;100392.51;105165;1300;61258;-82
2022/07/31 00:15:28;;;;;;;;;;;;;;;30.68;42.37;100398.34;105123;1300;61170;-83
2022/07/31 00:17:53;;;;;;;;;;;;;;;30.68;42.37;100393.77;105155;1299;61272;-82
2022/07/31 00:20:19;;;;;;;;;;;;;;;30.68;42.31;100397.54;105031;1300;61204;-81
2022/07/31 00:22:45;;;;;;;;;;;;;;;30.68;42.34;100406.95;105135;1300;61250;-82
2022/07/31 00:25:10;;;;;;;;;;;;;;;30.69;42.37;100413.73;105252;1299;61268;-82
2022/07/31 00:27:36;;;;;;;;;;;;;;;30.69;42.41;100413.48;105282;1300;61239;-82
2022/07/31 00:30:01;;;;;;;;;;;;;;;30.68;42.38;100422.02;105357;1299;61368;-81
2022/07/31 00:32:27;;;;;;;;;;;;;;;30.69;42.32;100424.53;105280;1299;61287;-82
2022/07/31 00:34:52;;;;;;;;;;;;;;;30.68;42.32;100422.06;105362;1300;61258;-82
2022/07/31 00:37:18;;;;;;;;;;;;;;;30.69;42.43;100411.12;105331;1298;61213;-82
2022/07/31 00:39:43;;;;;;;;;;;;;;;30.68;42.30;100416.98;105407;1300;61346;-82
2022/07/31 00:42:22;;;;;;;;;;;;;;;30.68;42.47;100418.50;105367;1298;61317;-82
2022/07/31 00:44:47;;;;;;;;;;;;;;;30.67;42.38;100416.52;105326;1298;75795;-82
2022/07/31 00:47:13;;;;;;;;;;;;;;;30.67;42.38;100401.09;105350;1300;61274;-82
2022/07/31 00:49:38;;;;;;;;;;;;;;;30.67;42.43;100400.25;105371;1299;61712;-82
2022/07/31 00:52:04;;;;;;;;;;;;;;;30.67;42.45;100400.27;105281;1300;61218;-82
2022/07/31 00:54:30;;;;;;;;;;;;;;;30.67;42.34;100409.71;105329;1300;61252;-82
2022/07/31 00:56:55;;;;;;;;;;;;;;;30.66;42.58;100413.25;105332;1299;61361;-82
2022/07/31 00:59:21;;;;;;;;;;;;;;;30.66;42.49;100414.68;105297;1299;61278;-82
2022/07/31 01:01:46;;;;;;;;;;;;;;;30.66;42.56;100421.98;105359;1300;61288;-82
2022/07/31 01:04:14;;;;;;;;;;;;;;;30.66;42.46;100423.27;105305;1300;61255;-82
2022/07/31 01:06:39;;;;;;;;;;;;;;;30.65;42.46;100419.16;105322;1299;61262;-82
2022/07/31 01:09:05;;;;;;;;;;;;;;;30.65;42.53;100422.97;105349;1300;61274;-82
2022/07/31 01:11:34;;;;;;;;;;;;;;;30.65;42.63;100429.33;105531;1298;59306;-82
2022/07/31 01:14:01;;;;;;;;;;;;;;;30.65;42.58;100425.90;105610;1299;61361;-82
2022/07/31 01:16:27;;;;;;;;;;;;;;;30.65;42.56;100427.16;105634;1298;61102;-82
2022/07/31 01:18:54;;;;;;;;;;;;;;;30.66;42.55;100428.89;105562;1300;61396;-82
2022/07/31 01:21:22;;;;;;;;;;;;;;;30.66;42.57;100428.17;105600;1300;60924;-82
2022/07/31 01:23:57;;;;;;;;;;;;;;;30.66;42.65;100429.39;105539;1300;73612;-82
2022/07/31 01:26:31;;;;;;;;;;;;;;;30.67;42.56;100424.59;105358;1300;75813;-83
2022/07/31 01:29:08;;;;;;;;;;;;;;;30.67;42.67;100425.84;105357;1300;61146;-82
2022/07/31 01:31:39;;;;;;;;;;;;;;;30.66;42.64;100422.44;105370;1299;61152;-81
2022/07/31 01:34:10;;;;;;;;;;;;;;;30.67;42.67;100424.98;105334;1299;72608;-81
2022/07/31 01:36:35;;;;;;;;;;;;;;;30.67;42.68;100432.80;105356;1298;74628;-82
2022/07/31 01:39:01;;;;;;;;;;;;;;;30.67;42.69;100433.52;105320;1299;61301;-82
2022/07/31 01:41:27;;;;;;;;;;;;;;;30.66;42.80;100433.41;105315;1299;61377;-82
2022/07/31 01:43:54;;;;;;;;;;;;;;;30.65;42.71;100427.85;105313;1299;61256;-82
2022/07/31 01:46:19;;;;;;;;;;;;;;;30.65;42.65;100420.76;105257;1300;61346;-82
2022/07/31 01:48:44;;;;;;;;;;;;;;;30.65;42.70;100423.90;105325;1298;61271;-82
2022/07/31 01:51:10;;;;;;;;;;;;;;;30.66;42.76;100422.77;105316;1300;61384;-82
2022/07/31 01:53:35;;;;;;;;;;;;;;;30.65;42.84;100423.05;105304;1300;61345;-84
2022/07/31 01:56:01;;;;;;;;;;;;;;;30.64;42.75;100423.42;105284;1300;61361;-84
2022/07/31 01:58:27;;;;;;;;;;;;;;;30.64;42.69;100424.22;105276;1299;62030;-84
2022/07/31 02:00:53;;;;;;;;;;;;;;;30.64;42.88;100419.72;105271;1299;61243;-84
2022/07/31 02:03:19;;;;;;;;;;;;;;;30.63;42.78;100415.95;105289;1299;61362;-84
2022/07/31 02:05:44;;;;;;;;;;;;;;;30.63;42.81;100414.17;105306;1299;61268;-84
2022/07/31 02:08:10;;;;;;;;;;;;;;;30.63;42.85;100413.26;105310;1300;72886;-84
2022/07/31 02:10:36;;;;;;;;;;;;;;;30.62;42.75;100406.06;105303;1300;61307;-84
2022/07/31 02:13:01;;;;;;;;;;;;;;;30.63;42.90;100406.24;105347;1300;61134;-82
2022/07/31 02:15:27;;;;;;;;;;;;;;;30.63;42.84;100407.88;105309;1298;61371;-82
2022/07/31 02:17:53;;;;;;;;;;;;;;;30.62;42.79;100411.05;105350;1300;61357;-83
2022/07/31 02:20:18;;;;;;;;;;;;;;;30.61;42.94;100409.63;105325;1300;61225;-83
2022/07/31 02:22:44;;;;;;;;;;;;;;;30.62;42.84;100407.57;105292;1300;76904;-82
2022/07/31 02:25:09;;;;;;;;;;;;;;;30.62;42.91;100404.90;105286;1300;61396;-82
2022/07/31 02:27:35;;;;;;;;;;;;;;;30.61;42.92;100405.48;105314;1300;61412;-82
2022/07/31 02:30:01;;;;;;;;;;;;;;;30.61;43.01;100404.42;105291;1300;61258;-82
2022/07/31 02:32:27;;;;;;;;;;;;;;;30.60;43.08;100407.01;105310;1300;61403;-82
2022/07/31 02:34:54;;;;;;;;;;;;;;;30.61;43.13;100404.42;105300;1300;61259;-82
2022/07/31 02:37:21;;;;;;;;;;;;;;;30.61;42.84;100408.98;105401;1299;61172;-82
2022/07/31 02:39:46;;;;;;;;;;;;;;;30.61;42.94;100411.16;105287;1300;61523;-82
2022/07/31 02:42:12;;;;;;;;;;;;;;;30.60;43.03;100412.30;105287;1300;61245;-82
2022/07/31 02:44:38;;;;;;;;;;;;;;;30.60;42.97;100408.65;105207;1300;61991;-82
2022/07/31 02:47:04;;;;;;;;;;;;;;;30.60;43.03;100404.66;105342;1300;61243;-82
2022/07/31 02:49:29;;;;;;;;;;;;;;;30.60;43.14;100409.56;105272;1300;61277;-82
2022/07/31 02:51:55;;;;;;;;;;;;;;;30.60;43.05;100409.22;105337;1299;61291;-82
2022/07/31 02:54:23;;;;;;;;;;;;;;;30.60;43.03;100406.70;105344;1300;73813;-82
2022/07/31 02:56:49;;;;;;;;;;;;;;;30.60;43.02;100406.70;105300;1300;74852;-82
2022/07/31 02:59:15;;;;;;;;;;;;;;;30.60;43.20;100406.70;105298;1300;61243;-82
2022/07/31 03:01:41;;;;;;;;;;;;;;;30.59;43.15;100408.20;105321;1299;61395;-82
2022/07/31 03:04:07;;;;;;;;;;;;;;;30.59;43.17;100408.95;105274;1300;61298;-82
2022/07/31 03:06:32;;;;;;;;;;;;;;;30.59;43.07;100405.52;105258;1300;61240;-82
2022/07/31 03:08:58;;;;;;;;;;;;;;;30.59;43.18;100405.30;105378;1300;61249;-82
2022/07/31 03:11:23;;;;;;;;;;;;;;;30.58;43.18;100410.29;105258;1300;61288;-82
2022/07/31 03:13:49;;;;;;;;;;;;;;;30.59;43.19;100412.63;105340;1300;61231;-82
2022/07/31 03:16:14;;;;;;;;;;;;;;;30.58;43.22;100415.23;105344;1299;61373;-82
2022/07/31 03:18:40;;;;;;;;;;;;;;;30.58;43.28;100418.29;105273;1300;61260;-82
2022/07/31 03:21:05;;;;;;;;;;;;;;;30.58;43.25;100418.90;105396;1300;61259;-82
2022/07/31 03:23:35;;;;;;;;;;;;;;;30.58;43.25;100423.40;105347;1300;61176;-82
2022/07/31 03:26:00;;;;;;;;;;;;;;;30.58;43.22;100427.42;105362;1300;61239;-82
2022/07/31 03:28:26;;;;;;;;;;;;;;;30.58;43.30;100429.59;105363;1299;61248;-82
2022/07/31 03:30:52;;;;;;;;;;;;;;;30.58;43.26;100433.04;105263;1300;61303;-82
2022/07/31 03:33:17;;;;;;;;;;;;;;;30.57;43.26;100430.60;105264;1299;61267;-82
2022/07/31 03:35:42;;;;;;;;;;;;;;;30.58;43.20;100430.89;105396;1300;61228;-82
2022/07/31 03:38:08;;;;;;;;;;;;;;;30.57;43.20;100432.77;105104;1300;61487;-82
2022/07/31 03:40:33;;;;;;;;;;;;;;;30.57;43.21;100429.66;105321;1300;61320;-82
2022/07/31 03:42:59;;;;;;;;;;;;;;;30.58;43.35;100429.63;105344;1300;61211;-82
2022/07/31 03:45:25;;;;;;;;;;;;;;;30.57;43.28;100430.92;105354;1300;61285;-82
2022/07/31 03:47:50;;;;;;;;;;;;;;;30.57;43.32;100429.88;105280;1299;61288;-82
2022/07/31 03:50:16;;;;;;;;;;;;;;;30.57;43.40;100432.77;105312;1300;61365;-82
2022/07/31 03:52:43;;;;;;;;;;;;;;;30.57;43.23;100429.00;105255;1300;71797;-82
2022/07/31 03:55:08;;;;;;;;;;;;;;;30.57;43.20;100433.56;105347;1300;61268;-82
2022/07/31 03:57:34;;;;;;;;;;;;;;;30.57;43.42;100432.82;105268;1300;61247;-82
2022/07/31 04:00:01;;;;;;;;;;;;;;;30.57;43.45;100436.27;105340;1300;61251;-82
2022/07/31 04:02:27;;;;;;;;;;;;;;;30.57;43.33;100438.64;105269;1300;61272;-82
2022/07/31 04:04:52;;;;;;;;;;;;;;;30.57;43.55;100440.30;105312;1299;61194;-82
2022/07/31 04:07:18;;;;;;;;;;;;;;;30.57;43.36;100437.55;105349;1300;61688;-82
2022/07/31 04:09:43;;;;;;;;;;;;;;;30.57;43.53;100440.39;105373;1300;61358;-82
2022/07/31 04:12:09;;;;;;;;;;;;;;;30.57;43.39;100438.64;105271;1300;63407;-82
2022/07/31 04:14:34;;;;;;;;;;;;;;;30.57;43.43;100438.77;105363;1300;61284;-82
2022/07/31 04:17:00;;;;;;;;;;;;;;;30.57;43.44;100441.15;105266;1299;61332;-82
2022/07/31 04:19:29;;;;;;;;;;;;;;;30.57;43.51;100438.08;105346;1300;61361;-82
2022/07/31 04:21:58;;;;;;;;;;;;;;;30.57;43.41;100440.10;105358;1300;61219;-82
2022/07/31 04:24:24;;;;;;;;;;;;;;;30.57;43.48;100438.09;105302;1299;72831;-82
2022/07/31 04:26:50;;;;;;;;;;;;;;;30.57;43.49;100435.91;105290;1300;61291;-82
2022/07/31 04:29:16;;;;;;;;;;;;;;;30.57;43.60;100437.71;105260;1300;61253;-82
2022/07/31 04:31:41;;;;;;;;;;;;;;;30.57;43.51;100436.92;105339;1300;61278;-82
2022/07/31 04:34:07;;;;;;;;;;;;;;;30.57;43.41;100433.52;105374;1299;61285;-82
2022/07/31 04:36:32;;;;;;;;;;;;;;;30.58;43.62;100436.16;105223;1300;61282;-82
2022/07/31 04:38:59;;;;;;;;;;;;;;;30.57;43.57;100434.73;105378;1300;61390;-82
2022/07/31 04:41:25;;;;;;;;;;;;;;;30.57;43.57;100427.49;105352;1300;61814;-82
2022/07/31 04:43:50;;;;;;;;;;;;;;;30.58;43.40;100432.16;105261;1300;61383;-82
2022/07/31 04:46:16;;;;;;;;;;;;;;;30.57;43.65;100429.34;105334;1298;61316;-82
2022/07/31 04:48:41;;;;;;;;;;;;;;;30.57;43.61;100427.48;105285;1300;61383;-82
2022/07/31 04:51:07;;;;;;;;;;;;;;;30.57;43.61;100430.21;105387;1300;61281;-82
2022/07/31 04:53:32;;;;;;;;;;;;;;;30.57;43.56;100432.06;105292;1299;61361;-82
2022/07/31 04:58:42;;;;;;;;;;;;;;;30.57;43.65;100424.77;105260;1300;72877;-82
2022/07/31 05:01:08;;;;;;;;;;;;;;;30.58;43.72;100428.75;105310;1300;61275;-82
2022/07/31 05:03:33;;;;;;;;;;;;;;;30.57;43.63;100429.46;105262;1300;61228;-82
2022/07/31 05:06:17;;;;;;;;;;;;;;;30.57;43.57;100432.55;105274;1300;61284;-82
2022/07/31 05:08:42;;;;;;;;;;;;;;;30.57;43.57;100433.48;105346;1300;72954;-82
2022/07/31 05:11:23;;;;;;;;;;;;;;;30.58;43.62;100435.96;105353;1300;61415;-82
2022/07/31 05:13:52;;;;;;;;;;;;;;;30.58;43.58;100442.88;105245;1300;61134;-82
2022/07/31 05:16:18;;;;;;;;;;;;;;;30.58;43.64;100443.05;105277;1300;61721;-82
2022/07/31 05:18:56;;;;;;;;;;;;;;;;;;;;;
2022/07/31 05:21:22;;;;;;;;;;;;;;;30.58;43.73;100448.15;105352;1300;75506;-82
2022/07/31 05:23:49;;;;;;;;;;;;;;;30.58;43.80;100446.69;105268;1300;61180;-82
2022/07/31 05:26:15;;;;;;;;;;;;;;;30.58;43.67;100450.84;105262;1300;61239;-82
2022/07/31 05:28:40;;;;;;;;;;;;;;;30.58;43.74;100449.23;105335;1300;61339;-82
2022/07/31 05:31:06;;;;;;;;;;;;;;;30.58;43.67;100450.81;105246;1300;61238;-82
2022/07/31 05:33:32;;;;;;;;;;;;;;;30.58;43.71;100458.34;105273;1300;61326;-82
2022/07/31 05:35:58;;;;;;;;;;;;;;;30.58;43.79;100458.30;105324;1300;61240;-82
2022/07/31 05:38:24;;;;;;;;;;;;;;;30.58;43.62;100463.95;105377;1300;61415;-82
2022/07/31 05:40:50;;;;;;;;;;;;;;;30.57;43.87;100463.08;105268;1300;74046;-82
2022/07/31 05:43:15;;;;;;;;;;;;;;;30.58;43.92;100460.89;105379;1300;61244;-82
2022/07/31 05:45:41;;;;;;;;;;;;;;;30.57;43.74;100460.02;105302;1300;61280;-82
2022/07/31 05:48:06;;;;;;;;;;;;;;;30.58;43.85;100461.60;105259;1300;61306;-81
2022/07/31 05:50:35;;;;;;;;;;;;;;;30.57;43.88;100459.84;105391;1299;61286;-81
2022/07/31 05:53:00;;;;;;;;;;;;;;;30.57;43.65;100458.96;105285;1299;73786;-82
2022/07/31 05:55:26;;;;;;;;;;;;;;;30.57;43.79;100463.91;105291;1300;61285;-81
2022/07/31 05:57:52;;;;;;;;;;;;;;;30.57;43.85;100458.79;105293;1300;61330;-81
2022/07/31 06:00:17;;;;;;;;;;;;;;;30.57;43.83;100460.42;105274;1300;62175;-81
2022/07/31 06:02:43;;;;;;;;;;;;;;;30.57;43.83;100464.98;105314;1300;61290;-82
2022/07/31 06:05:08;;;;;;;;;;;;;;;30.56;43.84;100463.05;105400;1299;61274;-82
2022/07/31 06:07:34;;;;;;;;;;;;;;;30.57;43.93;100466.83;105257;1300;61249;-82
2022/07/31 06:10:00;;;;;;;;;;;;;;;30.56;43.90;100462.33;105338;1300;61364;-81
2022/07/31 06:12:25;;;;;;;;;;;;;;;30.57;43.83;100461.39;105276;1299;61284;-81
2022/07/31 06:14:51;;;;;;;;;;;;;;;30.56;43.96;100459.61;105332;1300;61236;-81
2022/07/31 06:17:16;;;;;;;;;;;;;;;30.56;43.85;100458.38;105379;1300;61396;-81
2022/07/31 06:19:41;;;;;;;;;;;;;;;30.56;43.90;100455.45;105309;1300;74722;-81
2022/07/31 06:22:07;;;;;;;;;;;;;;;30.56;43.97;100454.58;105331;1300;61216;-81
2022/07/31 06:24:32;;;;;;;;;;;;;;;30.56;43.82;100453.45;105382;1300;61355;-81
2022/07/31 06:26:58;;;;;;;;;;;;;;;30.56;43.79;100454.02;105269;1300;61444;-81
2022/07/31 06:29:23;;;;;;;;;;;;;;;30.55;43.90;100445.72;105089;1300;307797;-81
2022/07/31 06:31:49;;;;;;;;;;;;;;;30.54;43.83;100447.63;105298;1300;75216;-81
2022/07/31 06:34:15;;;;;;;;;;;;;;;30.55;43.86;100449.06;105304;1300;61257;-81
2022/07/31 06:36:40;;;;;;;;;;;;;;;30.55;44.00;100449.58;105320;1299;61294;-81
2022/07/31 06:39:06;;;;;;;;;;;;;;;30.55;43.98;100449.91;105375;1300;61317;-82
2022/07/31 06:41:43;;;;;;;;;;;;;;;30.55;43.93;100449.98;105357;1300;61269;-82
2022/07/31 06:44:12;;;;;;;;;;;;;;;30.54;44.10;100445.11;105310;1298;76317;-81
2022/07/31 06:46:38;;;;;;;;;;;;;;;30.55;43.90;100447.22;105302;1300;61288;-81
2022/07/31 06:49:04;;;;;;;;;;;;;;;30.54;44.11;100448.39;105356;1299;62462;-81
2022/07/31 06:51:30;;;;;;;;;;;;;;;30.54;44.08;100448.77;105362;1300;61249;-81
2022/07/31 06:53:56;;;;;;;;;;;;;;;30.54;43.88;100450.98;105294;1300;61255;-82
2022/07/31 06:56:21;;;;;;;;;;;;;;;30.54;43.89;100449.52;105231;1299;61276;-82
2022/07/31 06:58:47;;;;;;;;;;;;;;;30.54;43.97;100451.17;105334;1300;61270;-82
2022/07/31 07:01:12;;;;;;;;;;;;;;;30.53;43.89;100448.21;105290;1300;62899;-82
2022/07/31 07:03:38;;;;;;;;;;;;;;;30.53;44.12;100453.05;105346;1300;61148;-82
2022/07/31 07:06:04;;;;;;;;;;;;;;;30.53;44.17;100452.75;105335;1300;61361;-82
2022/07/31 07:08:29;;;;;;;;;;;;;;;30.52;43.99;100450.11;105246;1300;61244;-82
2022/07/31 07:10:55;;;;;;;;;;;;;;;30.52;43.91;100453.38;105336;1298;61313;-82
2022/07/31 07:13:20;;;;;;;;;;;;;;;30.52;43.97;100456.27;105392;1300;61956;-81
2022/07/31 07:15:46;;;;;;;;;;;;;;;30.52;44.08;100463.89;105260;1299;61230;-81
2022/07/31 07:18:11;;;;;;;;;;;;;;;30.52;44.03;100466.98;105284;1300;61289;-81
2022/07/31 07:20:37;;;;;;;;;;;;;;;30.52;44.03;100469.71;105313;1300;61306;-81
2022/07/31 07:23:03;;;;;;;;;;;;;;;30.52;44.18;100467.54;105258;1300;61300;-81
2022/07/31 07:25:28;;;;;;;;;;;;;;;30.52;44.10;100466.31;105352;1300;61255;-81
2022/07/31 07:27:55;;;;;;;;;;;;;;;30.52;44.14;100470.26;105289;1300;74053;-81
2022/07/31 07:30:22;;;;;;;;;;;;;;;30.52;44.13;100467.02;105341;1300;74783;-81
2022/07/31 07:32:48;;;;;;;;;;;;;;;30.52;44.15;100474.11;105333;1299;61338;-81
2022/07/31 07:35:13;;;;;;;;;;;;;;;30.52;44.12;100470.27;105279;1299;61274;-81
2022/07/31 07:37:39;;;;;;;;;;;;;;;30.52;44.10;100471.41;105362;1300;61213;-81
2022/07/31 07:40:05;;;;;;;;;;;;;;;30.51;44.26;100474.55;105271;1300;61227;-81
2022/07/31 07:42:31;;;;;;;;;;;;;;;30.51;44.15;100472.34;105335;1299;61284;-81
2022/07/31 07:44:57;;;;;;;;;;;;;;;30.51;44.06;100475.40;105321;1300;61297;-81
2022/07/31 07:47:23;;;;;;;;;;;;;;;30.52;44.10;100470.34;105283;1298;61365;-81
2022/07/31 07:49:48;;;;;;;;;;;;;;;30.51;44.01;100468.19;105332;1300;61275;-81
2022/07/31 07:52:14;;;;;;;;;;;;;;;30.51;44.08;100469.27;105274;1300;61412;-81
2022/07/31 07:54:41;;;;;;;;;;;;;;;30.51;44.24;100471.33;105247;1300;61529;-82
2022/07/31 07:57:07;;;;;;;;;;;;;;;30.51;44.25;100470.23;105296;1300;61268;-82
2022/07/31 07:59:32;;;;;;;;;;;;;;;30.51;44.33;100468.92;105340;1300;61915;-82
2022/07/31 08:01:59;;;;;;;;;;;;;;;30.51;44.35;100468.02;105408;1300;61268;-81
2022/07/31 08:04:24;;;;;;;;;;;;;;;30.51;44.36;100464.76;105332;1300;74914;-81
2022/07/31 08:06:51;;;;;;;;;;;;;;;30.51;44.11;100464.58;105297;1299;61300;-81
2022/07/31 08:09:19;;;;;;;;;;;;;;;30.51;44.25;100464.62;105280;1299;61265;-81
2022/07/31 08:11:44;;;;;;;;;;;;;;;30.51;44.21;100462.36;105295;1300;73819;-81
2022/07/31 08:14:10;;;;;;;;;;;;;;;30.51;44.29;100459.34;105222;1298;61393;-81
2022/07/31 08:16:36;;;;;;;;;;;;;;;30.51;44.28;100460.40;105343;1300;61321;-81
2022/07/31 08:19:01;;;;;;;;;;;;;;;30.51;44.41;100464.58;105389;1300;61223;-81
2022/07/31 08:21:27;;;;;;;;;;;;;;;30.51;44.27;100464.01;105269;1299;61280;-81
2022/07/31 08:23:52;;;;;;;;;;;;;;;30.52;44.21;100459.61;105382;1299;61473;-81
2022/07/31 08:26:18;;;;;;;;;;;;;;;30.51;44.27;100456.34;105295;1300;61143;-81
2022/07/31 08:28:43;;;;;;;;;;;;;;;30.52;44.19;100453.98;105250;1300;61275;-81
2022/07/31 08:31:09;;;;;;;;;;;;;;;30.52;44.24;100454.88;105402;1299;61259;-81
2022/07/31 08:33:34;;;;;;;;;;;;;;;30.52;44.40;100460.27;105260;1300;61225;-81
2022/07/31 08:36:00;;;;;;;;;;;;;;;30.52;44.42;100459.95;105292;1300;61284;-81
2022/07/31 08:38:27;;;;;;;;;;;;;;;30.52;44.32;100456.48;105305;1300;73545;-81
2022/07/31 08:40:53;;;;;;;;;;;;;;;30.52;44.45;100461.34;105271;1300;61156;-81
2022/07/31 08:43:18;;;;;;;;;;;;;;;30.52;44.25;100455.71;105291;1300;61279;-81
2022/07/31 08:45:43;;;;;;;;;;;;;;;30.52;44.24;100458.44;105283;1300;61306;-81
2022/07/31 08:48:09;;;;;;;;;;;;;;;30.53;44.41;100460.58;105262;1300;61284;-81
2022/07/31 08:50:37;;;;;;;;;;;;;;;30.53;44.34;100458.20;105383;1300;61271;-81
2022/07/31 08:53:02;;;;;;;;;;;;;;;30.53;44.39;100456.70;105334;1300;61285;-81
2022/07/31 08:55:28;;;;;;;;;;;;;;;30.53;44.36;100456.54;105247;1299;61261;-81
2022/07/31 08:57:53;;;;;;;;;;;;;;;30.53;44.36;100454.71;105358;1299;61277;-81
2022/07/31 09:00:21;;;;;;;;;;;;;;;30.54;44.33;100453.16;105271;1300;61301;-81
2022/07/31 09:02:47;;;;;;;;;;;;;;;30.54;44.41;100450.56;105324;1300;61245;-81
2022/07/31 09:05:13;;;;;;;;;;;;;;;30.55;44.41;100445.25;105309;1300;61221;-81
2022/07/31 09:07:39;;;;;;;;;;;;;;;30.55;44.49;100442.27;105336;1300;61267;-81
2022/07/31 09:10:18;;;;;;;;;;;;;;;30.55;44.37;100440.61;105323;1299;61300;-81
2022/07/31 09:12:44;;;;;;;;;;;;;;;30.56;44.40;100441.08;105293;1298;61796;-81
2022/07/31 09:15:23;;;;;;;;;;;;;;;30.57;44.52;100438.13;105306;1300;61313;-81
2022/07/31 09:17:49;;;;;;;;;;;;;;;30.57;44.46;100434.82;105245;1299;72852;-81
2022/07/31 09:20:19;;;;;;;;;;;;;;;30.57;44.48;100430.96;105328;1300;61278;-81
2022/07/31 09:22:44;;;;;;;;;;;;;;;30.58;44.33;100429.05;105265;1300;61276;-82
2022/07/31 09:25:14;;;;;;;;;;;;;;;30.59;44.40;100427.89;105351;1299;61278;-81
2022/07/31 09:27:40;;;;;;;;;;;;;;;30.59;44.40;100425.71;105331;1300;73833;-81
2022/07/31 09:30:06;;;;;;;;;;;;;;;30.59;44.49;100418.80;105342;1299;61281;-81
2022/07/31 09:32:31;;;;;;;;;;;;;;;30.59;44.34;100415.63;105339;1300;61410;-81
2022/07/31 09:35:05;;;;;;;;;;;;;;;30.60;44.41;100419.02;105345;1300;61246;-81
2022/07/31 09:37:30;;;;;;;;;;;;;;;30.61;44.34;100420.75;105269;1300;74971;-81
2022/07/31 09:39:56;;;;;;;;;;;;;;;30.61;44.27;100416.16;105325;1300;61257;-81
2022/07/31 09:42:21;;;;;;;;;;;;;;;30.62;44.16;100416.16;105276;1300;61285;-81
2022/07/31 09:44:47;;;;;;;;;;;;;;;30.61;44.37;100414.52;105280;1299;61345;-81
2022/07/31 09:47:25;;;;;;;;;;;;;;;30.62;44.42;100405.91;105332;1299;61243;-82
2022/07/31 09:49:54;;;;;;;;;;;;;;;30.63;44.29;100401.27;105343;1300;75149;-82
2022/07/31 09:52:20;;;;;;;;;;;;;;;30.63;44.40;100395.45;105332;1300;61239;-82
2022/07/31 09:54:46;;;;;;;;;;;;;;;30.63;44.21;100394.73;105294;1300;61441;-82
2022/07/31 09:57:12;;;;;;;;;;;;;;;30.63;44.31;100391.05;105352;1300;61134;-82
2022/07/31 09:59:37;;;;;;;;;;;;;;;30.64;44.30;100389.55;105227;1299;61482;-82
2022/07/31 10:02:03;;;;;;;;;;;;;;;30.64;44.25;100383.73;105365;1299;61258;-82
2022/07/31 10:04:28;;;;;;;;;;;;;;;30.64;44.27;100383.17;105340;1300;61363;-82
2022/07/31 10:06:54;;;;;;;;;;;;;;;30.64;44.22;100382.36;105315;1299;61285;-83
2022/07/31 10:09:19;;;;;;;;;;;;;;;30.65;44.38;100381.19;105255;1299;61302;-82
2022/07/31 10:11:45;;;;;;;;;;;;;;;30.66;44.25;100379.14;105260;1299;61425;-83
2022/07/31 10:14:12;;;;;;;;;;;;;;;30.66;44.31;100376.59;105249;1300;61300;-83
2022/07/31 10:16:38;;;;;;;;;;;;;;;30.66;44.42;100373.48;105246;1299;61209;-83
2022/07/31 10:19:10;;;;;;;;;;;;;;;30.66;44.30;100364.77;105286;1300;61266;-83
2022/07/31 10:21:41;;;;;;;;;;;;;;;30.66;44.44;100369.81;105248;1299;74573;-83
2022/07/31 10:24:06;;;;;;;;;;;;;;;30.66;44.33;100366.19;105327;1300;61105;-83
2022/07/31 10:26:32;;;;;;;;;;;;;;;30.66;44.23;100363.61;105369;1299;61339;-83
2022/07/31 10:28:57;;;;;;;;;;;;;;;30.66;44.41;100362.92;105271;1298;61268;-83
2022/07/31 10:31:23;;;;;;;;;;;;;;;30.66;44.16;100362.35;105275;1299;61397;-83
2022/07/31 10:33:48;;;;;;;;;;;;;;;30.67;44.32;100361.89;105407;1298;61375;-83
2022/07/31 10:36:25;;;;;;;;;;;;;;;30.67;44.24;100360.42;105338;1300;61317;-83
2022/07/31 10:39:00;;;;;;;;;;;;;;;30.67;44.45;100359.52;105340;1300;61207;-83
2022/07/31 10:41:35;;;;;;;;;;;;;;;30.67;44.33;100357.02;105337;1299;72759;-83
2022/07/31 10:44:11;;;;;;;;;;;;;;;30.67;44.33;100353.05;105340;1299;75873;-83
2022/07/31 10:46:36;;;;;;;;;;;;;;;30.67;44.37;100350.83;105311;1298;61718;-81
2022/07/31 10:49:02;;;;;;;;;;;;;;;30.67;44.29;100345.89;105320;1300;61753;-82
2022/07/31 10:51:28;;;;;;;;;;;;;;;30.67;44.45;100344.30;105360;1300;61251;-82
2022/07/31 10:54:16;;;;;;;;;;;;;;;;;;;;;
2022/07/31 10:56:42;;;;;;;;;;;;;;;30.68;44.34;100337.69;105315;1300;61518;-83
2022/07/31 10:59:07;;;;;;;;;;;;;;;30.68;44.24;100331.87;105319;1298;61236;-82
2022/07/31 11:01:33;;;;;;;;;;;;;;;30.68;44.41;100332.20;105367;1299;61252;-82
2022/07/31 11:03:59;;;;;;;;;;;;;;;30.68;44.20;100328.77;105255;1300;61255;-82
2022/07/31 11:06:25;;;;;;;;;;;;;;;30.68;44.32;100324.73;105235;1300;61348;-82
2022/07/31 11:08:51;;;;;;;;;;;;;;;30.68;44.28;100321.64;105325;1300;61164;-82
2022/07/31 11:11:17;;;;;;;;;;;;;;;30.68;44.25;100319.96;105303;1299;61266;-82
2022/07/31 11:13:54;;;;;;;;;;;;;;;30.68;44.25;100315.48;105349;1300;73789;-82
2022/07/31 11:16:20;;;;;;;;;;;;;;;30.68;44.27;100310.54;105304;1300;75778;-82
2022/07/31 11:19:01;;;;;;;;;;;;;;;30.68;44.39;100309.08;105343;1300;62076;-82
2022/07/31 11:21:38;;;;;;;;;;;;;;;30.69;44.32;100305.80;105359;1298;61415;-82
2022/07/31 11:24:14;;;;;;;;;;;;;;;30.69;44.42;100301.23;105340;1300;73950;-82
2022/07/31 11:26:47;;;;;;;;;;;;;;;30.69;44.36;100299.74;105378;1300;75587;-82
2022/07/31 11:29:13;;;;;;;;;;;;;;;30.69;44.36;100297.95;105313;1300;61322;-82
2022/07/31 11:31:38;;;;;;;;;;;;;;;30.69;44.26;100293.02;105356;1299;61269;-82
2022/07/31 11:34:04;;;;;;;;;;;;;;;30.69;44.34;100290.64;105255;1300;61761;-82
2022/07/31 11:36:29;;;;;;;;;;;;;;;30.69;44.40;100285.54;105310;1300;61242;-82
2022/07/31 11:38:55;;;;;;;;;;;;;;;30.69;44.48;100284.09;105203;1300;61291;-82
2022/07/31 11:41:20;;;;;;;;;;;;;;;30.70;44.35;100279.46;105185;1298;60997;-83
2022/07/31 11:43:47;;;;;;;;;;;;;;;30.70;44.30;100274.43;105232;1300;61377;-83
2022/07/31 11:46:15;;;;;;;;;;;;;;;30.70;44.26;100272.35;105160;1299;61204;-83
2022/07/31 11:48:40;;;;;;;;;;;;;;;30.70;44.31;100266.73;105096;1300;75529;-82
2022/07/31 11:51:06;;;;;;;;;;;;;;;30.71;44.34;100266.65;105350;1299;61236;-82
2022/07/31 11:53:38;;;;;;;;;;;;;;;30.71;44.27;100262.64;105246;1299;61269;-83
2022/07/31 11:56:04;;;;;;;;;;;;;;;30.71;44.29;100256.86;105234;1300;72680;-82
2022/07/31 11:58:29;;;;;;;;;;;;;;;30.71;44.22;100254.96;105143;1300;61249;-82
2022/07/31 12:00:58;;;;;;;;;;;;;;;30.71;44.33;100249.35;105189;1300;61307;-82
2022/07/31 12:03:28;;;;;;;;;;;;;;;30.72;44.44;100242.36;105252;1298;61254;-82
2022/07/31 12:05:53;;;;;;;;;;;;;;;30.72;44.29;100252.67;105259;1299;73778;-82
2022/07/31 12:08:19;;;;;;;;;;;;;;;30.72;44.18;100242.28;105256;1300;61264;-82
2022/07/31 12:10:44;;;;;;;;;;;;;;;30.73;44.28;100240.27;105214;1299;62040;-82
2022/07/31 12:13:31;;;;;;;;;;;;;;;30.72;44.40;100241.93;105316;1299;61281;-82
2022/07/31 12:16:03;;;;;;;;;;;;;;;30.73;44.31;100244.25;105335;1300;71888;-84
2022/07/31 12:18:30;;;;;;;;;;;;;;;30.73;44.28;100240.60;105336;1300;74532;-85
2022/07/31 12:20:58;;;;;;;;;;;;;;;30.73;44.29;100240.73;105254;1300;61823;-84
2022/07/31 12:23:24;;;;;;;;;;;;;;;30.73;44.41;100240.02;105350;1299;61394;-84
2022/07/31 12:25:51;;;;;;;;;;;;;;;30.73;44.38;100240.73;105349;1300;61374;-85
2022/07/31 12:28:16;;;;;;;;;;;;;;;30.73;44.31;100239.64;105357;1300;61068;-84